Accueil
METAR-TAF:

METAR-TAF

Aéroports :

Hermosillo, Mexique

latitude: 29-04N, longitude: 110-57W, altitude: 211 m

Observation

Le bulletin a été fait il y a 2 heures et 6 minutes, à 05:40 UTC
Vent calme
Température 14°C
Humidité 17%
Pression 1015 hPa
Visibilité: 16.1 km
Ciel clair

METAR: MMHO 020540Z 00000KT 10SM SKC 14/M11 A2997 RMK SLP150 52003 991 HZY

Heure: 00:46 (07:46 UTC)

Prévision

Le bulletin a été fait il y a 2 heures et 42 minutes, à 05:04 UTC
Prévision valable du 02 à 06 UTC au 03 à 06 UTC
Vent kt de nord
Visibilité: 10 km
Ciel clair
A partir de 02 à 1900 UTC
Vent 10 kt de sud/sud-ouest
Visibilité: 10 km
Ciel clair
A partir de 03 à 0300 UTC
Vent 5 kt de ouest/sud-ouest
Visibilité: 10 km
Ciel clair

TAF: MMHO 020504Z 0206/0306 00000KT P6SM SKC FM021900 20010KT P6SM SKC FM030300 24005KT P6SM SKC

Observations et prévisions météorologiques de plus de 4000 aéroports (messages METAR et TAF).

Les stations disponibles sont représentées par des disques jaunes et rouges sur la carte.

Passer la souris dessus pour voir le nom de la station.

Cliquer dessus pour voir les observations et prévisions météorologiques.

Pour changer de carte: cliquez sur les boutons verts avec une croix noire pour zoomer, sur le bouton vert avec un tiret pour effectuer un zoom arrière, ou sur les flèches vertes pour les cartes adjacentes.


METAR-TAF: